sensor_id;sensor_type;location;lat;lon;timestamp;P1;durP1;ratioP1;P2;durP2;ratioP2
75295;SDS011;64623;44.738;37.804;2024-02-23T00:00:57;31.13;;;14.82;;
75295;SDS011;64623;44.738;37.804;2024-02-23T00:02:01;42.63;;;13.85;;
75295;SDS011;64623;44.738;37.804;2024-02-23T00:03:04;31.92;;;13.82;;
75295;SDS011;64623;44.738;37.804;2024-02-23T00:04:08;32.70;;;13.77;;
75295;SDS011;64623;44.738;37.804;2024-02-23T00:05:12;24.40;;;13.30;;
75295;SDS011;64623;44.738;37.804;2024-02-23T00:06:15;27.33;;;12.40;;
75295;SDS011;64623;44.738;37.804;2024-02-23T00:07:18;31.40;;;13.55;;
75295;SDS011;64623;44.738;37.804;2024-02-23T00:08:22;37.78;;;12.75;;
75295;SDS011;64623;44.738;37.804;2024-02-23T00:09:25;29.27;;;12.68;;
75295;SDS011;64623;44.738;37.804;2024-02-23T00:10:29;28.08;;;12.57;;
75295;SDS011;64623;44.738;37.804;2024-02-23T00:11:32;34.17;;;12.13;;
75295;SDS011;64623;44.738;37.804;2024-02-23T00:12:36;33.97;;;13.38;;
75295;SDS011;64623;44.738;37.804;2024-02-23T00:13:39;35.83;;;12.90;;
75295;SDS011;64623;44.738;37.804;2024-02-23T00:14:42;30.73;;;11.60;;
75295;SDS011;64623;44.738;37.804;2024-02-23T00:15:45;30.30;;;12.05;;
75295;SDS011;64623;44.738;37.804;2024-02-23T00:16:49;28.98;;;13.27;;
75295;SDS011;64623;44.738;37.804;2024-02-23T00:17:52;35.58;;;13.27;;
75295;SDS011;64623;44.738;37.804;2024-02-23T00:18:56;32.90;;;14.30;;
75295;SDS011;64623;44.738;37.804;2024-02-23T00:20:00;33.47;;;13.90;;
75295;SDS011;64623;44.738;37.804;2024-02-23T00:21:04;32.78;;;13.07;;
75295;SDS011;64623;44.738;37.804;2024-02-23T00:22:08;40.88;;;14.45;;
75295;SDS011;64623;44.738;37.804;2024-02-23T00:23:11;41.10;;;15.68;;
75295;SDS011;64623;44.738;37.804;2024-02-23T00:24:14;38.42;;;13.95;;
75295;SDS011;64623;44.738;37.804;2024-02-23T00:25:19;48.55;;;15.48;;
75295;SDS011;64623;44.738;37.804;2024-02-23T00:26:22;34.00;;;15.05;;
75295;SDS011;64623;44.738;37.804;2024-02-23T00:27:25;37.70;;;14.15;;
75295;SDS011;64623;44.738;37.804;2024-02-23T00:28:28;35.25;;;14.23;;
75295;SDS011;64623;44.738;37.804;2024-02-23T00:29:32;38.25;;;14.93;;
75295;SDS011;64623;44.738;37.804;2024-02-23T00:30:35;39.20;;;15.05;;
75295;SDS011;64623;44.738;37.804;2024-02-23T00:31:38;44.83;;;14.45;;
75295;SDS011;64623;44.738;37.804;2024-02-23T00:34:44;39.40;;;13.20;;
75295;SDS011;64623;44.738;37.804;2024-02-23T00:35:48;48.20;;;13.32;;
75295;SDS011;64623;44.738;37.804;2024-02-23T00:36:51;37.08;;;12.60;;
75295;SDS011;64623;44.738;37.804;2024-02-23T00:37:54;28.33;;;13.00;;
75295;SDS011;64623;44.738;37.804;2024-02-23T00:38:57;27.13;;;12.05;;
75295;SDS011;64623;44.738;37.804;2024-02-23T00:40:07;28.05;;;10.95;;
75295;SDS011;64623;44.738;37.804;2024-02-23T00:41:11;28.25;;;10.73;;
75295;SDS011;64623;44.738;37.804;2024-02-23T00:42:15;28.48;;;11.60;;
75295;SDS011;64623;44.738;37.804;2024-02-23T00:43:19;18.77;;;8.73;;
75295;SDS011;64623;44.738;37.804;2024-02-23T00:44:23;18.50;;;7.85;;
75295;SDS011;64623;44.738;37.804;2024-02-23T00:45:26;13.05;;;5.88;;
75295;SDS011;64623;44.738;37.804;2024-02-23T00:46:30;10.70;;;6.20;;
75295;SDS011;64623;44.738;37.804;2024-02-23T00:47:33;11.18;;;5.25;;
75295;SDS011;64623;44.738;37.804;2024-02-23T00:48:38;11.18;;;5.78;;
75295;SDS011;64623;44.738;37.804;2024-02-23T00:49:41;10.30;;;5.65;;
75295;SDS011;64623;44.738;37.804;2024-02-23T00:50:44;11.85;;;5.22;;
75295;SDS011;64623;44.738;37.804;2024-02-23T00:51:47;9.30;;;5.32;;
75295;SDS011;64623;44.738;37.804;2024-02-23T00:52:50;8.95;;;4.65;;
75295;SDS011;64623;44.738;37.804;2024-02-23T00:53:54;10.20;;;5.13;;
75295;SDS011;64623;44.738;37.804;2024-02-23T00:54:57;6.78;;;4.93;;
75295;SDS011;64623;44.738;37.804;2024-02-23T00:56:00;7.57;;;4.35;;
75295;SDS011;64623;44.738;37.804;2024-02-23T00:57:03;6.53;;;3.45;;
75295;SDS011;64623;44.738;37.804;2024-02-23T00:58:07;7.22;;;3.72;;
75295;SDS011;64623;44.738;37.804;2024-02-23T00:59:10;7.82;;;4.00;;
75295;SDS011;64623;44.738;37.804;2024-02-23T01:00:13;6.53;;;3.65;;
75295;SDS011;64623;44.738;37.804;2024-02-23T01:01:17;6.07;;;4.05;;
75295;SDS011;64623;44.738;37.804;2024-02-23T01:02:20;8.05;;;3.92;;
75295;SDS011;64623;44.738;37.804;2024-02-23T01:03:23;4.63;;;3.35;;
75295;SDS011;64623;44.738;37.804;2024-02-23T01:04:26;5.65;;;3.67;;
75295;SDS011;64623;44.738;37.804;2024-02-23T01:05:30;7.43;;;4.03;;
75295;SDS011;64623;44.738;37.804;2024-02-23T01:06:33;6.72;;;4.05;;
75295;SDS011;64623;44.738;37.804;2024-02-23T01:07:36;8.13;;;4.57;;
75295;SDS011;64623;44.738;37.804;2024-02-23T01:08:40;11.57;;;6.38;;
75295;SDS011;64623;44.738;37.804;2024-02-23T01:09:43;13.95;;;6.75;;
75295;SDS011;64623;44.738;37.804;2024-02-23T01:10:46;20.33;;;8.57;;
75295;SDS011;64623;44.738;37.804;2024-02-23T01:11:49;24.73;;;8.00;;
75295;SDS011;64623;44.738;37.804;2024-02-23T01:12:53;40.70;;;11.20;;
75295;SDS011;64623;44.738;37.804;2024-02-23T01:13:57;49.58;;;11.82;;
75295;SDS011;64623;44.738;37.804;2024-02-23T01:15:00;46.50;;;12.07;;
75295;SDS011;64623;44.738;37.804;2024-02-23T01:16:04;30.13;;;10.52;;
75295;SDS011;64623;44.738;37.804;2024-02-23T01:17:08;29.20;;;10.45;;
75295;SDS011;64623;44.738;37.804;2024-02-23T01:18:11;32.88;;;11.63;;
75295;SDS011;64623;44.738;37.804;2024-02-23T01:19:15;40.13;;;12.52;;
75295;SDS011;64623;44.738;37.804;2024-02-23T01:20:18;31.75;;;12.38;;
75295;SDS011;64623;44.738;37.804;2024-02-23T01:21:22;30.17;;;11.63;;
75295;SDS011;64623;44.738;37.804;2024-02-23T01:22:25;27.92;;;12.13;;
75295;SDS011;64623;44.738;37.804;2024-02-23T01:23:28;27.95;;;11.32;;
75295;SDS011;64623;44.738;37.804;2024-02-23T01:24:31;21.85;;;10.93;;
75295;SDS011;64623;44.738;37.804;2024-02-23T01:25:35;27.05;;;10.65;;
75295;SDS011;64623;44.738;37.804;2024-02-23T01:26:38;18.27;;;8.95;;
75295;SDS011;64623;44.738;37.804;2024-02-23T01:27:44;26.80;;;8.60;;
75295;SDS011;64623;44.738;37.804;2024-02-23T01:28:47;16.90;;;8.50;;
75295;SDS011;64623;44.738;37.804;2024-02-23T01:29:50;22.23;;;11.95;;
75295;SDS011;64623;44.738;37.804;2024-02-23T01:30:53;18.23;;;9.40;;
75295;SDS011;64623;44.738;37.804;2024-02-23T01:31:57;21.90;;;11.18;;
75295;SDS011;64623;44.738;37.804;2024-02-23T01:33:00;24.75;;;10.88;;
75295;SDS011;64623;44.738;37.804;2024-02-23T01:34:03;27.52;;;12.57;;
75295;SDS011;64623;44.738;37.804;2024-02-23T01:35:06;32.78;;;14.88;;
75295;SDS011;64623;44.738;37.804;2024-02-23T01:36:11;30.52;;;13.48;;
75295;SDS011;64623;44.738;37.804;2024-02-23T01:37:14;32.15;;;13.65;;
75295;SDS011;64623;44.738;37.804;2024-02-23T01:38:17;30.58;;;13.98;;
75295;SDS011;64623;44.738;37.804;2024-02-23T01:39:24;34.92;;;12.55;;
75295;SDS011;64623;44.738;37.804;2024-02-23T01:40:27;27.45;;;12.50;;
75295;SDS011;64623;44.738;37.804;2024-02-23T01:41:31;33.15;;;14.07;;
75295;SDS011;64623;44.738;37.804;2024-02-23T01:42:35;30.55;;;13.77;;
75295;SDS011;64623;44.738;37.804;2024-02-23T01:43:38;24.67;;;12.27;;
75295;SDS011;64623;44.738;37.804;2024-02-23T01:44:42;29.30;;;12.73;;
75295;SDS011;64623;44.738;37.804;2024-02-23T01:45:45;30.05;;;12.82;;
75295;SDS011;64623;44.738;37.804;2024-02-23T01:46:49;27.23;;;12.20;;
75295;SDS011;64623;44.738;37.804;2024-02-23T01:47:53;25.90;;;11.63;;
75295;SDS011;64623;44.738;37.804;2024-02-23T01:48:56;28.70;;;11.90;;
75295;SDS011;64623;44.738;37.804;2024-02-23T01:50:00;28.88;;;11.77;;
75295;SDS011;64623;44.738;37.804;2024-02-23T01:55:21;26.67;;;12.38;;
75295;SDS011;64623;44.738;37.804;2024-02-23T01:56:25;25.98;;;11.95;;
75295;SDS011;64623;44.738;37.804;2024-02-23T01:57:29;26.27;;;11.88;;
75295;SDS011;64623;44.738;37.804;2024-02-23T02:02:51;37.13;;;11.70;;
75295;SDS011;64623;44.738;37.804;2024-02-23T02:03:58;27.83;;;11.38;;
75295;SDS011;64623;44.738;37.804;2024-02-23T02:05:01;20.67;;;11.50;;
75295;SDS011;64623;44.738;37.804;2024-02-23T02:06:06;30.33;;;12.05;;
75295;SDS011;64623;44.738;37.804;2024-02-23T02:07:10;29.60;;;12.48;;
75295;SDS011;64623;44.738;37.804;2024-02-23T02:08:14;21.38;;;10.75;;
75295;SDS011;64623;44.738;37.804;2024-02-23T02:09:18;24.25;;;10.43;;
75295;SDS011;64623;44.738;37.804;2024-02-23T02:10:21;27.42;;;12.25;;
75295;SDS011;64623;44.738;37.804;2024-02-23T02:11:25;20.55;;;10.15;;
75295;SDS011;64623;44.738;37.804;2024-02-23T02:12:28;26.80;;;11.40;;
75295;SDS011;64623;44.738;37.804;2024-02-23T02:13:31;21.88;;;10.18;;
75295;SDS011;64623;44.738;37.804;2024-02-23T02:14:35;21.10;;;11.23;;
75295;SDS011;64623;44.738;37.804;2024-02-23T02:15:38;20.08;;;10.75;;
75295;SDS011;64623;44.738;37.804;2024-02-23T02:16:41;19.73;;;10.05;;
75295;SDS011;64623;44.738;37.804;2024-02-23T02:17:46;20.67;;;11.50;;
75295;SDS011;64623;44.738;37.804;2024-02-23T02:18:50;18.73;;;9.88;;
75295;SDS011;64623;44.738;37.804;2024-02-23T02:19:53;17.88;;;10.65;;
75295;SDS011;64623;44.738;37.804;2024-02-23T02:20:57;19.00;;;10.07;;
75295;SDS011;64623;44.738;37.804;2024-02-23T02:22:00;18.73;;;10.75;;
75295;SDS011;64623;44.738;37.804;2024-02-23T02:23:04;22.42;;;10.75;;
75295;SDS011;64623;44.738;37.804;2024-02-23T02:24:09;18.85;;;10.32;;
75295;SDS011;64623;44.738;37.804;2024-02-23T02:25:14;17.45;;;10.98;;
75295;SDS011;64623;44.738;37.804;2024-02-23T02:26:19;19.50;;;9.80;;
75295;SDS011;64623;44.738;37.804;2024-02-23T02:27:22;21.30;;;10.65;;
75295;SDS011;64623;44.738;37.804;2024-02-23T02:28:25;17.33;;;10.45;;
75295;SDS011;64623;44.738;37.804;2024-02-23T02:29:28;19.15;;;9.70;;
75295;SDS011;64623;44.738;37.804;2024-02-23T02:30:32;17.52;;;10.30;;
75295;SDS011;64623;44.738;37.804;2024-02-23T02:31:35;19.50;;;10.30;;
75295;SDS011;64623;44.738;37.804;2024-02-23T02:32:39;22.70;;;11.73;;
75295;SDS011;64623;44.738;37.804;2024-02-23T02:33:43;19.52;;;10.50;;
75295;SDS011;64623;44.738;37.804;2024-02-23T02:34:46;17.15;;;10.23;;
75295;SDS011;64623;44.738;37.804;2024-02-23T02:35:50;21.42;;;11.80;;
75295;SDS011;64623;44.738;37.804;2024-02-23T02:36:53;16.27;;;10.40;;
75295;SDS011;64623;44.738;37.804;2024-02-23T02:37:57;14.27;;;9.50;;
75295;SDS011;64623;44.738;37.804;2024-02-23T02:39:00;17.08;;;9.77;;
75295;SDS011;64623;44.738;37.804;2024-02-23T02:40:03;15.05;;;9.40;;
75295;SDS011;64623;44.738;37.804;2024-02-23T02:41:08;14.68;;;8.70;;
75295;SDS011;64623;44.738;37.804;2024-02-23T02:42:11;16.80;;;9.65;;
75295;SDS011;64623;44.738;37.804;2024-02-23T02:43:14;17.52;;;9.45;;
75295;SDS011;64623;44.738;37.804;2024-02-23T02:44:18;15.02;;;8.98;;
75295;SDS011;64623;44.738;37.804;2024-02-23T02:45:21;17.25;;;9.38;;
75295;SDS011;64623;44.738;37.804;2024-02-23T02:46:25;18.25;;;8.98;;
75295;SDS011;64623;44.738;37.804;2024-02-23T02:47:28;16.52;;;9.25;;
75295;SDS011;64623;44.738;37.804;2024-02-23T02:48:31;16.15;;;9.00;;
75295;SDS011;64623;44.738;37.804;2024-02-23T02:49:34;17.63;;;8.90;;
75295;SDS011;64623;44.738;37.804;2024-02-23T02:50:37;13.93;;;7.72;;
75295;SDS011;64623;44.738;37.804;2024-02-23T02:51:41;14.02;;;7.85;;
75295;SDS011;64623;44.738;37.804;2024-02-23T02:52:44;12.25;;;7.35;;
75295;SDS011;64623;44.738;37.804;2024-02-23T02:53:47;16.58;;;9.05;;
75295;SDS011;64623;44.738;37.804;2024-02-23T02:54:51;12.60;;;8.60;;
75295;SDS011;64623;44.738;37.804;2024-02-23T02:55:54;15.27;;;8.73;;
75295;SDS011;64623;44.738;37.804;2024-02-23T02:56:57;14.02;;;7.57;;
75295;SDS011;64623;44.738;37.804;2024-02-23T02:58:01;14.13;;;8.40;;
75295;SDS011;64623;44.738;37.804;2024-02-23T02:59:04;13.50;;;8.32;;
75295;SDS011;64623;44.738;37.804;2024-02-23T03:00:09;12.18;;;8.00;;
75295;SDS011;64623;44.738;37.804;2024-02-23T03:01:13;11.73;;;8.43;;
75295;SDS011;64623;44.738;37.804;2024-02-23T03:02:16;13.82;;;8.23;;
75295;SDS011;64623;44.738;37.804;2024-02-23T03:03:20;13.15;;;8.43;;
75295;SDS011;64623;44.738;37.804;2024-02-23T03:04:25;15.18;;;8.73;;
75295;SDS011;64623;44.738;37.804;2024-02-23T03:05:28;14.77;;;8.95;;
75295;SDS011;64623;44.738;37.804;2024-02-23T03:06:31;16.00;;;8.93;;
75295;SDS011;64623;44.738;37.804;2024-02-23T03:07:34;14.48;;;8.32;;
75295;SDS011;64623;44.738;37.804;2024-02-23T03:08:37;14.27;;;8.90;;
75295;SDS011;64623;44.738;37.804;2024-02-23T03:09:41;14.02;;;9.23;;
75295;SDS011;64623;44.738;37.804;2024-02-23T03:10:44;15.18;;;7.70;;
75295;SDS011;64623;44.738;37.804;2024-02-23T03:11:47;12.98;;;8.25;;
75295;SDS011;64623;44.738;37.804;2024-02-23T03:12:51;14.98;;;9.07;;
75295;SDS011;64623;44.738;37.804;2024-02-23T03:13:54;15.70;;;9.07;;
75295;SDS011;64623;44.738;37.804;2024-02-23T03:14:57;13.73;;;8.50;;
75295;SDS011;64623;44.738;37.804;2024-02-23T03:16:01;13.77;;;7.85;;
75295;SDS011;64623;44.738;37.804;2024-02-23T03:17:04;15.32;;;8.68;;
75295;SDS011;64623;44.738;37.804;2024-02-23T03:18:07;15.35;;;8.20;;
75295;SDS011;64623;44.738;37.804;2024-02-23T03:19:12;14.07;;;7.90;;
75295;SDS011;64623;44.738;37.804;2024-02-23T03:20:16;13.48;;;7.63;;
75295;SDS011;64623;44.738;37.804;2024-02-23T03:21:19;12.77;;;7.55;;
75295;SDS011;64623;44.738;37.804;2024-02-23T03:22:22;13.57;;;6.70;;
75295;SDS011;64623;44.738;37.804;2024-02-23T03:23:26;10.70;;;7.03;;
75295;SDS011;64623;44.738;37.804;2024-02-23T03:24:29;12.30;;;7.28;;
75295;SDS011;64623;44.738;37.804;2024-02-23T03:25:33;11.35;;;6.47;;
75295;SDS011;64623;44.738;37.804;2024-02-23T03:26:36;9.70;;;6.40;;
75295;SDS011;64623;44.738;37.804;2024-02-23T03:27:39;9.68;;;6.40;;
75295;SDS011;64623;44.738;37.804;2024-02-23T03:28:43;9.88;;;6.63;;
75295;SDS011;64623;44.738;37.804;2024-02-23T03:29:46;10.40;;;5.22;;
75295;SDS011;64623;44.738;37.804;2024-02-23T03:30:49;9.63;;;5.25;;
75295;SDS011;64623;44.738;37.804;2024-02-23T03:31:52;12.63;;;6.25;;
75295;SDS011;64623;44.738;37.804;2024-02-23T03:32:56;8.90;;;5.75;;
75295;SDS011;64623;44.738;37.804;2024-02-23T03:33:59;9.68;;;6.28;;
75295;SDS011;64623;44.738;37.804;2024-02-23T03:35:03;9.82;;;5.65;;
75295;SDS011;64623;44.738;37.804;2024-02-23T03:36:06;9.23;;;6.07;;
75295;SDS011;64623;44.738;37.804;2024-02-23T03:37:10;10.32;;;5.88;;
75295;SDS011;64623;44.738;37.804;2024-02-23T03:38:13;9.02;;;5.57;;
75295;SDS011;64623;44.738;37.804;2024-02-23T03:39:16;10.48;;;6.28;;
75295;SDS011;64623;44.738;37.804;2024-02-23T03:40:20;9.00;;;4.93;;
75295;SDS011;64623;44.738;37.804;2024-02-23T03:41:23;10.07;;;5.45;;
75295;SDS011;64623;44.738;37.804;2024-02-23T03:42:29;10.25;;;5.85;;
75295;SDS011;64623;44.738;37.804;2024-02-23T03:43:34;10.18;;;5.97;;
75295;SDS011;64623;44.738;37.804;2024-02-23T03:44:37;10.82;;;6.82;;
75295;SDS011;64623;44.738;37.804;2024-02-23T03:45:41;10.68;;;7.13;;
75295;SDS011;64623;44.738;37.804;2024-02-23T03:46:44;11.93;;;7.03;;
75295;SDS011;64623;44.738;37.804;2024-02-23T03:47:47;11.48;;;6.82;;
75295;SDS011;64623;44.738;37.804;2024-02-23T03:48:50;10.23;;;6.82;;
75295;SDS011;64623;44.738;37.804;2024-02-23T03:49:54;11.40;;;6.75;;
75295;SDS011;64623;44.738;37.804;2024-02-23T03:50:58;10.98;;;6.50;;
75295;SDS011;64623;44.738;37.804;2024-02-23T03:52:01;8.63;;;6.15;;
75295;SDS011;64623;44.738;37.804;2024-02-23T03:53:04;9.18;;;5.90;;
75295;SDS011;64623;44.738;37.804;2024-02-23T03:54:07;8.43;;;6.28;;
75295;SDS011;64623;44.738;37.804;2024-02-23T03:55:11;9.27;;;6.43;;
75295;SDS011;64623;44.738;37.804;2024-02-23T03:56:14;10.05;;;6.13;;
75295;SDS011;64623;44.738;37.804;2024-02-23T03:57:17;7.95;;;5.10;;
75295;SDS011;64623;44.738;37.804;2024-02-23T03:58:20;14.88;;;6.20;;
75295;SDS011;64623;44.738;37.804;2024-02-23T03:59:25;13.90;;;5.68;;
75295;SDS011;64623;44.738;37.804;2024-02-23T04:00:28;9.82;;;6.10;;
75295;SDS011;64623;44.738;37.804;2024-02-23T04:01:31;8.30;;;5.50;;
75295;SDS011;64623;44.738;37.804;2024-02-23T04:02:35;10.70;;;6.13;;
75295;SDS011;64623;44.738;37.804;2024-02-23T04:03:38;12.13;;;6.65;;
75295;SDS011;64623;44.738;37.804;2024-02-23T04:04:41;8.68;;;5.45;;
75295;SDS011;64623;44.738;37.804;2024-02-23T04:05:44;9.65;;;6.25;;
75295;SDS011;64623;44.738;37.804;2024-02-23T04:06:48;10.07;;;4.72;;
75295;SDS011;64623;44.738;37.804;2024-02-23T04:07:51;8.40;;;4.80;;
75295;SDS011;64623;44.738;37.804;2024-02-23T04:08:54;8.75;;;6.00;;
75295;SDS011;64623;44.738;37.804;2024-02-23T04:09:59;9.75;;;4.85;;
75295;SDS011;64623;44.738;37.804;2024-02-23T04:11:02;7.43;;;4.80;;
75295;SDS011;64623;44.738;37.804;2024-02-23T04:12:06;11.07;;;5.03;;
75295;SDS011;64623;44.738;37.804;2024-02-23T04:13:10;7.15;;;4.40;;
75295;SDS011;64623;44.738;37.804;2024-02-23T04:14:16;7.78;;;4.53;;
75295;SDS011;64623;44.738;37.804;2024-02-23T04:15:19;8.23;;;4.95;;
75295;SDS011;64623;44.738;37.804;2024-02-23T04:16:23;7.32;;;4.30;;
75295;SDS011;64623;44.738;37.804;2024-02-23T04:17:30;9.15;;;4.00;;
75295;SDS011;64623;44.738;37.804;2024-02-23T04:18:33;6.70;;;3.83;;
75295;SDS011;64623;44.738;37.804;2024-02-23T04:19:36;6.82;;;4.60;;
75295;SDS011;64623;44.738;37.804;2024-02-23T04:20:39;7.90;;;4.10;;
75295;SDS011;64623;44.738;37.804;2024-02-23T04:21:43;7.22;;;5.15;;
75295;SDS011;64623;44.738;37.804;2024-02-23T04:22:46;7.35;;;4.57;;
75295;SDS011;64623;44.738;37.804;2024-02-23T04:23:49;9.15;;;5.40;;
75295;SDS011;64623;44.738;37.804;2024-02-23T04:24:53;9.38;;;5.28;;
75295;SDS011;64623;44.738;37.804;2024-02-23T04:25:56;8.98;;;5.53;;
75295;SDS011;64623;44.738;37.804;2024-02-23T04:26:59;8.07;;;5.38;;
75295;SDS011;64623;44.738;37.804;2024-02-23T04:28:02;14.20;;;7.30;;
75295;SDS011;64623;44.738;37.804;2024-02-23T04:29:06;13.02;;;7.25;;
75295;SDS011;64623;44.738;37.804;2024-02-23T04:30:09;14.38;;;7.32;;
75295;SDS011;64623;44.738;37.804;2024-02-23T04:31:14;14.27;;;9.32;;
75295;SDS011;64623;44.738;37.804;2024-02-23T04:32:17;16.30;;;8.02;;
75295;SDS011;64623;44.738;37.804;2024-02-23T04:33:21;20.52;;;12.45;;
75295;SDS011;64623;44.738;37.804;2024-02-23T04:34:24;19.80;;;9.85;;
75295;SDS011;64623;44.738;37.804;2024-02-23T04:35:27;17.23;;;9.43;;
75295;SDS011;64623;44.738;37.804;2024-02-23T04:36:30;12.65;;;7.88;;
75295;SDS011;64623;44.738;37.804;2024-02-23T04:37:34;14.25;;;8.73;;
75295;SDS011;64623;44.738;37.804;2024-02-23T04:38:37;12.75;;;8.07;;
75295;SDS011;64623;44.738;37.804;2024-02-23T04:39:43;15.85;;;8.88;;
75295;SDS011;64623;44.738;37.804;2024-02-23T04:40:46;16.08;;;9.57;;
75295;SDS011;64623;44.738;37.804;2024-02-23T04:41:50;18.38;;;9.35;;
75295;SDS011;64623;44.738;37.804;2024-02-23T04:42:53;13.70;;;8.68;;
75295;SDS011;64623;44.738;37.804;2024-02-23T04:43:56;15.30;;;8.05;;
75295;SDS011;64623;44.738;37.804;2024-02-23T04:45:03;7.75;;;5.60;;
75295;SDS011;64623;44.738;37.804;2024-02-23T04:46:07;11.95;;;6.63;;
75295;SDS011;64623;44.738;37.804;2024-02-23T04:47:10;13.57;;;7.95;;
75295;SDS011;64623;44.738;37.804;2024-02-23T04:48:14;14.32;;;8.45;;
75295;SDS011;64623;44.738;37.804;2024-02-23T04:49:17;10.65;;;7.50;;
75295;SDS011;64623;44.738;37.804;2024-02-23T04:50:20;11.73;;;7.40;;
75295;SDS011;64623;44.738;37.804;2024-02-23T04:51:24;6.90;;;4.40;;
75295;SDS011;64623;44.738;37.804;2024-02-23T04:52:27;10.10;;;6.93;;
75295;SDS011;64623;44.738;37.804;2024-02-23T04:53:30;5.70;;;4.00;;
75295;SDS011;64623;44.738;37.804;2024-02-23T04:54:34;6.95;;;4.07;;
75295;SDS011;64623;44.738;37.804;2024-02-23T04:55:37;8.32;;;4.68;;
75295;SDS011;64623;44.738;37.804;2024-02-23T04:56:40;8.60;;;4.70;;
75295;SDS011;64623;44.738;37.804;2024-02-23T04:57:44;5.70;;;3.53;;
75295;SDS011;64623;44.738;37.804;2024-02-23T04:58:47;6.07;;;3.85;;
75295;SDS011;64623;44.738;37.804;2024-02-23T04:59:50;3.65;;;2.63;;
75295;SDS011;64623;44.738;37.804;2024-02-23T05:00:53;5.43;;;3.13;;
75295;SDS011;64623;44.738;37.804;2024-02-23T05:01:58;3.50;;;2.42;;
75295;SDS011;64623;44.738;37.804;2024-02-23T05:03:01;3.55;;;1.88;;
75295;SDS011;64623;44.738;37.804;2024-02-23T05:04:06;3.80;;;1.92;;
75295;SDS011;64623;44.738;37.804;2024-02-23T05:05:09;4.63;;;1.88;;
75295;SDS011;64623;44.738;37.804;2024-02-23T05:06:12;2.75;;;1.50;;
75295;SDS011;64623;44.738;37.804;2024-02-23T05:07:15;3.03;;;1.42;;
75295;SDS011;64623;44.738;37.804;2024-02-23T05:08:19;3.00;;;1.95;;
75295;SDS011;64623;44.738;37.804;2024-02-23T05:09:23;2.55;;;1.58;;
75295;SDS011;64623;44.738;37.804;2024-02-23T05:10:26;3.13;;;2.05;;
75295;SDS011;64623;44.738;37.804;2024-02-23T05:11:29;9.60;;;6.75;;
75295;SDS011;64623;44.738;37.804;2024-02-23T05:12:33;7.38;;;3.65;;
75295;SDS011;64623;44.738;37.804;2024-02-23T05:13:36;10.43;;;6.05;;
75295;SDS011;64623;44.738;37.804;2024-02-23T05:14:41;7.50;;;3.97;;
75295;SDS011;64623;44.738;37.804;2024-02-23T05:15:45;9.77;;;4.35;;
75295;SDS011;64623;44.738;37.804;2024-02-23T05:16:48;6.63;;;4.03;;
75295;SDS011;64623;44.738;37.804;2024-02-23T05:17:52;6.70;;;3.83;;
75295;SDS011;64623;44.738;37.804;2024-02-23T05:18:55;6.97;;;3.65;;
75295;SDS011;64623;44.738;37.804;2024-02-23T05:19:58;9.20;;;6.35;;
75295;SDS011;64623;44.738;37.804;2024-02-23T05:21:02;40.90;;;21.85;;
75295;SDS011;64623;44.738;37.804;2024-02-23T05:22:05;8.82;;;6.40;;
75295;SDS011;64623;44.738;37.804;2024-02-23T05:23:08;10.70;;;6.38;;
75295;SDS011;64623;44.738;37.804;2024-02-23T05:24:12;10.45;;;7.18;;
75295;SDS011;64623;44.738;37.804;2024-02-23T05:25:15;18.67;;;11.25;;
75295;SDS011;64623;44.738;37.804;2024-02-23T05:26:18;15.65;;;7.78;;
75295;SDS011;64623;44.738;37.804;2024-02-23T05:27:22;12.68;;;9.00;;
75295;SDS011;64623;44.738;37.804;2024-02-23T05:28:26;15.50;;;9.63;;
75295;SDS011;64623;44.738;37.804;2024-02-23T05:29:30;21.63;;;11.57;;
75295;SDS011;64623;44.738;37.804;2024-02-23T05:30:35;26.73;;;13.75;;
75295;SDS011;64623;44.738;37.804;2024-02-23T05:31:48;28.90;;;18.52;;
75295;SDS011;64623;44.738;37.804;2024-02-23T05:35:13;13.15;;;8.73;;
75295;SDS011;64623;44.738;37.804;2024-02-23T05:36:17;14.77;;;8.70;;
75295;SDS011;64623;44.738;37.804;2024-02-23T05:37:21;14.25;;;8.13;;
75295;SDS011;64623;44.738;37.804;2024-02-23T05:38:24;11.48;;;7.82;;
75295;SDS011;64623;44.738;37.804;2024-02-23T05:39:27;14.07;;;9.75;;
75295;SDS011;64623;44.738;37.804;2024-02-23T05:40:32;16.52;;;10.65;;
75295;SDS011;64623;44.738;37.804;2024-02-23T05:41:36;33.20;;;18.85;;
75295;SDS011;64623;44.738;37.804;2024-02-23T05:42:39;29.73;;;18.00;;
75295;SDS011;64623;44.738;37.804;2024-02-23T05:43:42;36.28;;;20.27;;
75295;SDS011;64623;44.738;37.804;2024-02-23T05:44:45;28.55;;;15.93;;
75295;SDS011;64623;44.738;37.804;2024-02-23T05:45:51;23.50;;;14.48;;
75295;SDS011;64623;44.738;37.804;2024-02-23T05:46:54;25.35;;;13.70;;
75295;SDS011;64623;44.738;37.804;2024-02-23T05:47:57;33.83;;;20.90;;
75295;SDS011;64623;44.738;37.804;2024-02-23T05:49:01;32.15;;;19.33;;
75295;SDS011;64623;44.738;37.804;2024-02-23T05:50:07;24.88;;;15.52;;
75295;SDS011;64623;44.738;37.804;2024-02-23T05:51:14;40.15;;;23.52;;
75295;SDS011;64623;44.738;37.804;2024-02-23T05:52:17;25.05;;;13.15;;
75295;SDS011;64623;44.738;37.804;2024-02-23T05:53:20;27.85;;;14.07;;
75295;SDS011;64623;44.738;37.804;2024-02-23T05:54:24;18.30;;;12.55;;
75295;SDS011;64623;44.738;37.804;2024-02-23T05:55:27;18.75;;;11.00;;
75295;SDS011;64623;44.738;37.804;2024-02-23T05:56:30;14.32;;;9.73;;
75295;SDS011;64623;44.738;37.804;2024-02-23T05:57:33;13.82;;;9.05;;
75295;SDS011;64623;44.738;37.804;2024-02-23T05:58:37;16.55;;;9.52;;
75295;SDS011;64623;44.738;37.804;2024-02-23T05:59:41;24.98;;;12.32;;
75295;SDS011;64623;44.738;37.804;2024-02-23T06:00:44;17.58;;;10.77;;
75295;SDS011;64623;44.738;37.804;2024-02-23T06:01:47;23.70;;;12.20;;
75295;SDS011;64623;44.738;37.804;2024-02-23T06:02:51;14.45;;;8.27;;
75295;SDS011;64623;44.738;37.804;2024-02-23T06:03:54;16.58;;;10.93;;
75295;SDS011;64623;44.738;37.804;2024-02-23T06:04:57;13.20;;;9.68;;
75295;SDS011;64623;44.738;37.804;2024-02-23T06:06:01;14.20;;;10.38;;
75295;SDS011;64623;44.738;37.804;2024-02-23T06:07:04;20.73;;;14.45;;
75295;SDS011;64623;44.738;37.804;2024-02-23T06:08:07;33.08;;;20.60;;
75295;SDS011;64623;44.738;37.804;2024-02-23T06:09:10;28.02;;;16.27;;
75295;SDS011;64623;44.738;37.804;2024-02-23T06:10:14;25.45;;;14.77;;
75295;SDS011;64623;44.738;37.804;2024-02-23T06:11:18;27.23;;;16.45;;
75295;SDS011;64623;44.738;37.804;2024-02-23T06:12:22;25.33;;;14.75;;
75295;SDS011;64623;44.738;37.804;2024-02-23T06:13:27;24.95;;;15.38;;
75295;SDS011;64623;44.738;37.804;2024-02-23T06:14:31;18.48;;;13.40;;
75295;SDS011;64623;44.738;37.804;2024-02-23T06:15:34;25.27;;;15.88;;
75295;SDS011;64623;44.738;37.804;2024-02-23T06:16:38;27.27;;;17.27;;
75295;SDS011;64623;44.738;37.804;2024-02-23T06:17:41;25.00;;;15.25;;
75295;SDS011;64623;44.738;37.804;2024-02-23T06:18:44;22.02;;;12.18;;
75295;SDS011;64623;44.738;37.804;2024-02-23T06:19:47;19.58;;;12.85;;
75295;SDS011;64623;44.738;37.804;2024-02-23T06:20:51;22.80;;;14.77;;
75295;SDS011;64623;44.738;37.804;2024-02-23T06:21:54;30.25;;;20.38;;
75295;SDS011;64623;44.738;37.804;2024-02-23T06:22:58;29.73;;;17.67;;
75295;SDS011;64623;44.738;37.804;2024-02-23T06:24:01;28.45;;;16.88;;